CST,Max TemperatureF,Mean TemperatureF,Min TemperatureF,Max Dew PointF,MeanDew PointF,Min DewpointF,Max Humidity, Mean Humidity, Min Humidity, Max Sea Level PressureIn, Mean Sea Level PressureIn, Min Sea Level PressureIn, Max VisibilityMiles, Mean VisibilityMiles, Min VisibilityMiles, Max Wind SpeedMPH, Mean Wind SpeedMPH, Max Gust SpeedMPH,PrecipitationIn, CloudCover, Events, WindDirDegrees
2011-11-1,50,42,35,36,31,25,81,64,40,30.01,29.86,29.71,10,10,10,16,7,20,0.00,1,,253
2011-11-2,46,35,24,28,24,18,93,66,39,30.27,30.21,30.11,10,10,7,13,2,16,0.00,1,,301
2011-11-3,51,35,19,25,18,16,86,57,24,30.22,30.16,30.08,10,10,10,22,5,28,0.00,0,,188
2011-11-4,55,45,35,21,17,12,52,34,19,30.07,29.93,29.81,10,10,10,34,15,44,0.00,0,,171
2011-11-5,57,47,37,37,32,23,76,58,41,29.81,29.63,29.48,10,10,10,23,16,29,0.00,0,,153
2011-11-6,48,42,35,43,36,25,100,85,65,29.64,29.45,29.33,10,8,1,25,19,39,0.05,7,Rain,190
2011-11-7,39,32,24,27,25,19,93,73,49,30.16,29.97,29.71,10,10,7,24,15,32,0.00,6,,249
2011-11-8,46,32,19,27,21,18,93,69,37,30.17,30.13,30.09,10,10,10,17,4,23,0.00,0,,181
2011-11-9,37,26,15,27,22,12,100,83,56,30.09,30.06,30.01,10,9,1,16,5,26,0.00,3,Snow,297
2011-11-10,37,30,24,28,24,19,93,79,52,30.06,30.00,29.86,10,10,7,20,11,25,0.00,5,Snow,300
2011-11-11,50,40,30,36,25,19,93,65,40,29.75,29.54,29.48,10,10,2,17,11,24,0.00,2,Snow,194
2011-11-12,57,40,24,37,28,21,86,60,38,29.45,29.29,29.10,10,10,10,8,3,,0.00,0,,155
2011-11-13,37,32,26,28,26,23,93,80,60,29.29,29.22,29.10,10,10,10,16,9,18,0.00,6,,251
2011-11-14,42,33,24,30,26,21,100,79,53,29.43,29.33,29.26,10,10,10,15,10,20,0.00,2,,212
2011-11-15,35,26,17,30,24,16,100,91,74,29.78,29.56,29.47,10,8,0,23,8,30,0.01,5,Snow,226
2011-11-16,23,16,8,19,13,7,93,83,68,30.07,29.96,29.83,10,9,2,18,11,21,0.00,6,Snow,260
2011-11-17,21,10,0,14,7,-4,92,79,58,30.09,30.02,29.82,10,9,2,9,5,,0.00,3,Snow,205
2011-11-18,30,24,19,25,17,12,93,77,68,29.72,29.64,29.60,10,10,10,10,7,17,0.00,2,,105
2011-11-19,19,12,6,16,9,1,93,84,73,30.15,29.96,29.79,10,10,7,21,13,24,0.00,5,Snow,341
2011-11-20,19,10,1,9,4,-2,92,78,58,30.31,30.24,30.17,10,10,5,12,3,,0.00,2,Snow,195
2011-11-21,33,20,8,23,14,7,100,78,60,30.16,30.13,30.10,10,10,10,18,11,25,0.00,0,,193
2011-11-22,35,28,21,30,28,19,100,90,81,30.09,29.99,29.92,7,4,2,23,12,24,0.00,6,,182
2011-11-23,48,38,28,36,30,27,100,77,61,29.95,29.87,29.75,10,9,3,18,13,23,0.00,0,,188
2011-11-24,55,42,30,36,30,27,86,63,44,29.74,29.65,29.61,10,10,10,20,12,24,0.00,0,,187
2011-11-25,44,35,26,34,29,23,100,85,66,29.72,29.67,29.64,10,10,7,13,5,17,0.00,3,,43
2011-11-26,33,32,30,30,29,25,100,92,80,30.14,29.94,29.71,10,7,1,21,12,30,0.00,8,Snow,333
2011-11-27,28,24,19,25,21,18,93,84,74,30.24,30.15,29.97,10,10,10,21,11,28,0.00,5,,290
2011-11-28,46,34,23,32,22,16,86,63,51,30.20,29.93,29.81,10,10,10,22,15,29,0.00,0,,211
2011-11-29,37,22,6,21,12,3,93,74,41,30.33,30.23,30.00,10,10,10,15,2,18,0.00,0,,187
2011-11-30,30,26,23,25,22,18,86,79,69,30.11,29.92,29.84,10,10,4,13,3,,0.00,4,Snow,3